Time;durP1;ratioP1;P1;durP2;ratioP2;P2;SDS_P1;SDS_P2;PMS_P1;PMS_P2;Temp;Humidity;BMP_temperature;BMP_pressure;BME280_temperature;BME280_humidity;BME280_pressure;Samples;Min_cycle;Max_cycle;Signal;HPM_P1;HPM_P2
2024/04/11 00:01:30;;;;;;;4.43;2.20;;;4.50;4.90;;;;;;5488451;26;21018;-71
2024/04/11 00:03:55;;;;;;;4.30;2.40;;;4.60;4.30;;;;;;5485007;26;20226;-71
2024/04/11 00:06:21;;;;;;;4.20;2.80;;;4.60;4.30;;;;;;5488832;26;20669;-71
2024/04/11 00:08:46;;;;;;;4.63;2.00;;;4.60;4.10;;;;;;5491397;26;20306;-71
2024/04/11 00:11:13;;;;;;;4.53;2.40;;;4.60;4.20;;;;;;5489266;26;20237;-71
2024/04/11 00:13:38;;;;;;;4.57;2.38;;;4.70;4.30;;;;;;5490353;26;20250;-71
2024/04/11 00:16:04;;;;;;;2.90;1.80;;;4.70;4.10;;;;;;5491294;26;20233;-71
2024/04/11 00:18:30;;;;;;;4.93;2.20;;;4.70;3.50;;;;;;5490746;26;20234;-71
2024/04/11 00:20:56;;;;;;;2.90;1.70;;;4.80;3.10;;;;;;5488770;26;20281;-71
2024/04/11 00:23:22;;;;;;;4.70;2.70;;;4.70;2.90;;;;;;5489712;26;20463;-70
2024/04/11 00:25:58;;;;;;;3.80;2.07;;;4.80;3.20;;;;;;5488479;26;20222;-71
2024/04/11 00:28:25;;;;;;;4.65;2.50;;;4.80;2.60;;;;;;5490583;26;20448;-70
2024/04/11 00:30:51;;;;;;;5.72;1.83;;;4.80;2.60;;;;;;5490317;26;20693;-71
2024/04/11 00:33:17;;;;;;;4.10;2.13;;;4.80;2.70;;;;;;5489638;26;20231;-70
2024/04/11 00:35:42;;;;;;;6.85;1.90;;;4.70;4.10;;;;;;5488111;26;20332;-70
2024/04/11 00:38:10;;;;;;;2.50;1.80;;;4.70;4.30;;;;;;5490247;26;20241;-70
2024/04/11 00:40:36;;;;;;;8.63;2.10;;;4.70;4.60;;;;;;5490105;26;20222;-70
2024/04/11 00:43:02;;;;;;;3.72;2.55;;;4.70;3.90;;;;;;5489693;26;20696;-70
2024/04/11 00:45:28;;;;;;;5.10;2.50;;;4.70;4.70;;;;;;5490211;26;20266;-70
2024/04/11 00:47:54;;;;;;;6.68;2.30;;;4.60;5.20;;;;;;5488022;26;20247;-70
2024/04/11 00:50:19;;;;;;;4.33;2.40;;;4.60;6.70;;;;;;5489999;26;20225;-70
2024/04/11 00:52:48;;;;;;;4.33;2.57;;;4.50;6.20;;;;;;5489414;26;20253;-70
2024/04/11 00:55:15;;;;;;;3.60;2.63;;;4.60;5.90;;;;;;5490244;26;20518;-71
2024/04/11 00:57:40;;;;;;;3.53;1.90;;;4.60;6.50;;;;;;5489725;26;20709;-70
2024/04/11 01:00:06;;;;;;;5.00;2.37;;;4.50;6.90;;;;;;5489965;26;20268;-71
2024/04/11 01:02:33;;;;;;;6.90;2.80;;;4.50;6.20;;;;;;5489769;26;20558;-70
2024/04/11 01:05:00;;;;;;;3.83;2.75;;;4.50;6.20;;;;;;5489685;26;20686;-70
2024/04/11 01:07:26;;;;;;;3.72;2.63;;;4.40;6.80;;;;;;5489685;26;20755;-70
2024/04/11 01:09:52;;;;;;;4.23;2.20;;;4.30;7.50;;;;;;5487904;26;20222;-71
2024/04/11 01:12:17;;;;;;;5.63;2.40;;;4.30;8.20;;;;;;5489510;26;20213;-71
2024/04/11 01:14:45;;;;;;;6.07;2.47;;;4.20;8.80;;;;;;5489191;26;20217;-70
2024/04/11 01:17:15;;;;;;;6.30;2.67;;;4.20;9.90;;;;;;5487042;26;20613;-71
2024/04/11 01:19:47;;;;;;;3.45;2.40;;;4.20;10.00;;;;;;5489749;26;20230;-71
2024/04/11 01:22:13;;;;;;;6.10;3.08;;;4.20;10.30;;;;;;5489406;26;20251;-70
2024/04/11 01:24:42;;;;;;;3.97;2.30;;;4.20;9.80;;;;;;5488747;26;20237;-71
2024/04/11 01:27:10;;;;;;;9.55;3.50;;;4.20;9.20;;;;;;5489273;26;20807;-70
2024/04/11 01:29:38;;;;;;;4.20;2.92;;;4.20;9.60;;;;;;5489133;26;20217;-70
2024/04/11 01:32:05;;;;;;;4.20;2.63;;;4.20;9.80;;;;;;5489303;26;20221;-70
2024/04/11 01:34:31;;;;;;;3.80;2.55;;;4.20;9.40;;;;;;5488969;26;20225;-70
2024/04/11 01:36:57;;;;;;;5.93;2.13;;;4.20;8.70;;;;;;5430062;21;20743;-70
2024/04/11 01:39:24;;;;;;;6.32;2.22;;;4.10;9.30;;;;;;5381125;26;20216;-70
2024/04/11 01:41:50;;;;;;;3.80;2.38;;;4.10;10.10;;;;;;5381000;26;20217;-70
2024/04/11 01:44:15;;;;;;;4.97;2.83;;;4.10;11.00;;;;;;5380461;26;20259;-70
2024/04/11 01:46:41;;;;;;;6.47;3.20;;;4.00;10.70;;;;;;5380668;26;20522;-70
2024/04/11 01:49:06;;;;;;;5.70;2.97;;;4.00;11.80;;;;;;5379108;26;20224;-70
2024/04/11 01:51:32;;;;;;;6.63;3.80;;;4.00;12.80;;;;;;5380585;26;20221;-69
2024/04/11 01:53:57;;;;;;;4.10;3.03;;;3.90;13.10;;;;;;5380344;26;20233;-69
2024/04/11 01:56:25;;;;;;;6.37;3.83;;;3.90;15.20;;;;;;5378845;26;20650;-69
2024/04/11 01:58:51;;;;;;;4.78;3.22;;;3.80;15.40;;;;;;5380633;26;20549;-70
2024/04/11 02:01:19;;;;;;;7.30;3.40;;;3.80;16.60;;;;;;5380712;26;20220;-70
2024/04/11 02:03:45;;;;;;;4.70;3.20;;;3.80;16.80;;;;;;5378474;26;20283;-70
2024/04/11 02:06:11;;;;;;;4.77;3.20;;;3.80;16.00;;;;;;5380660;26;20676;-70
2024/04/11 02:08:37;;;;;;;8.13;3.53;;;3.80;16.80;;;;;;5378784;26;20251;-71
2024/04/11 02:11:04;;;;;;;8.82;4.15;;;3.80;15.10;;;;;;5379092;26;20250;-69
2024/04/11 02:13:30;;;;;;;6.07;4.20;;;3.80;15.10;;;;;;5380112;26;20216;-70
2024/04/11 02:15:56;;;;;;;9.23;4.22;;;3.80;15.10;;;;;;5380483;26;20233;-70
2024/04/11 02:18:22;;;;;;;6.63;3.97;;;3.70;15.60;;;;;;5380899;26;20259;-70
2024/04/11 02:20:53;;;;;;;7.53;4.13;;;3.80;15.10;;;;;;5379930;26;20593;-70
2024/04/11 02:23:19;;;;;;;7.82;3.83;;;3.80;15.90;;;;;;5380713;26;20502;-69
2024/04/11 02:25:44;;;;;;;6.70;3.35;;;3.80;16.10;;;;;;5380398;26;20337;-68
2024/04/11 02:28:10;;;;;;;4.73;3.60;;;3.80;16.20;;;;;;5379671;26;20225;-69
2024/04/11 02:30:35;;;;;;;5.07;4.23;;;3.70;16.30;;;;;;5378220;26;20229;-70
2024/04/11 02:33:01;;;;;;;6.40;4.07;;;3.70;16.50;;;;;;5380054;26;20224;-70
2024/04/11 02:35:26;;;;;;;8.93;4.70;;;3.70;16.70;;;;;;5378402;26;20252;-70
2024/04/11 02:37:53;;;;;;;5.90;4.80;;;3.70;16.70;;;;;;5380296;26;20233;-70
2024/04/11 02:40:19;;;;;;;5.32;3.45;;;3.70;16.80;;;;;;5380697;26;20281;-69
2024/04/11 02:42:45;;;;;;;5.35;3.50;;;3.70;16.10;;;;;;5380154;26;20225;-70
2024/04/11 02:45:14;;;;;;;4.70;3.97;;;3.70;16.00;;;;;;5380487;26;20220;-69
2024/04/11 02:47:43;;;;;;;4.10;3.10;;;3.70;15.80;;;;;;5380218;26;20224;-70
2024/04/11 02:50:09;;;;;;;4.75;2.95;;;3.60;16.20;;;;;;5380663;26;20224;-70
2024/04/11 02:52:36;;;;;;;6.53;3.67;;;3.50;16.60;;;;;;5379691;26;20267;-70
2024/04/11 02:55:04;;;;;;;9.50;3.47;;;3.50;17.70;;;;;;5378322;26;20256;-70
2024/04/11 02:57:31;;;;;;;6.47;4.05;;;3.50;18.80;;;;;;5380634;26;20236;-71
2024/04/11 02:59:56;;;;;;;7.15;3.25;;;3.50;19.10;;;;;;5380068;26;20216;-70
2024/04/11 03:02:23;;;;;;;5.63;3.63;;;3.60;16.80;;;;;;5378005;26;20228;-71
2024/04/11 03:04:51;;;;;;;5.68;3.28;;;3.60;17.30;;;;;;5379757;26;20300;-70
2024/04/11 03:07:21;;;;;;;7.35;4.28;;;3.60;16.60;;;;;;5379974;26;20270;-70
2024/04/11 03:09:47;;;;;;;7.25;3.55;;;3.60;16.50;;;;;;5380114;26;20587;-70
2024/04/11 03:12:12;;;;;;;6.37;3.30;;;3.60;16.30;;;;;;5380135;26;20267;-70
2024/04/11 03:14:38;;;;;;;4.83;3.77;;;3.50;18.10;;;;;;5379636;26;20259;-71
2024/04/11 03:17:04;;;;;;;7.38;3.45;;;3.50;18.50;;;;;;5380153;26;20229;-70
2024/04/11 03:19:31;;;;;;;10.23;4.53;;;3.60;17.00;;;;;;5380017;26;20700;-71
2024/04/11 03:21:56;;;;;;;8.63;4.18;;;3.60;16.70;;;;;;5379927;26;20443;-69
2024/04/11 03:24:22;;;;;;;6.00;3.57;;;3.50;18.00;;;;;;5379731;26;20610;-71
2024/04/11 03:26:48;;;;;;;4.63;3.17;;;3.50;16.70;;;;;;5378029;26;20355;-69
2024/04/11 03:29:15;;;;;;;7.60;3.80;;;3.60;16.10;;;;;;5377812;26;20228;-69
2024/04/11 03:31:44;;;;;;;8.20;4.15;;;3.50;16.70;;;;;;5379320;26;20359;-69
2024/04/11 03:34:09;;;;;;;6.80;3.25;;;3.50;17.60;;;;;;5377557;26;20240;-68
2024/04/11 03:36:35;;;;;;;4.70;4.20;;;3.50;17.10;;;;;;5379157;26;20279;-68
2024/04/11 03:39:01;;;;;;;10.13;4.37;;;3.40;18.50;;;;;;5379559;26;20574;-69
2024/04/11 03:41:27;;;;;;;6.82;3.50;;;3.40;19.10;;;;;;5382388;26;20670;-68
2024/04/11 03:43:55;;;;;;;4.57;3.60;;;3.30;19.10;;;;;;5382232;26;20298;-69
2024/04/11 03:46:22;;;;;;;8.63;4.05;;;3.30;19.10;;;;;;5382615;26;20236;-69
2024/04/11 03:48:51;;;;;;;5.85;3.20;;;3.20;19.00;;;;;;5382494;26;20224;-69
2024/04/11 03:51:24;;;;;;;9.15;3.80;;;3.20;19.60;;;;;;5382511;26;20224;-70
2024/04/11 03:53:55;;;;;;;6.65;3.45;;;3.10;19.90;;;;;;5382157;26;20217;-69
2024/04/11 03:56:22;;;;;;;8.52;5.25;;;3.10;20.70;;;;;;5380101;26;20271;-69
2024/04/11 03:58:49;;;;;;;5.43;3.25;;;3.10;21.30;;;;;;5382270;26;20221;-69
2024/04/11 04:01:15;;;;;;;6.03;3.33;;;3.10;21.70;;;;;;5382188;26;20220;-69
2024/04/11 04:03:46;;;;;;;6.93;4.85;;;3.00;22.00;;;;;;5381507;26;20263;-69
2024/04/11 04:06:13;;;;;;;5.95;3.50;;;3.10;21.90;;;;;;5380203;26;20310;-69
2024/04/11 04:08:46;;;;;;;6.07;4.57;;;3.10;21.40;;;;;;5380760;26;20747;-68
2024/04/11 04:11:12;;;;;;;5.00;3.70;;;3.10;21.10;;;;;;5382158;26;20270;-69
2024/04/11 04:13:38;;;;;;;5.78;3.33;;;3.10;20.70;;;;;;5381846;26;20274;-69
2024/04/11 04:16:10;;;;;;;10.73;3.88;;;3.10;20.70;;;;;;5382048;26;20279;-69
2024/04/11 04:18:46;;;;;;;5.05;3.60;;;3.10;20.40;;;;;;5380318;26;20284;-69
2024/04/11 04:21:13;;;;;;;7.63;3.38;;;3.10;20.30;;;;;;5382079;26;20389;-69
2024/04/11 04:23:43;;;;;;;5.60;3.55;;;3.10;20.30;;;;;;5381736;26;20220;-69
2024/04/11 04:26:10;;;;;;;4.68;3.38;;;3.20;20.20;;;;;;5381973;26;20240;-68
2024/04/11 04:28:38;;;;;;;5.43;3.63;;;3.20;19.20;;;;;;5381840;26;20225;-69
2024/04/11 04:31:16;;;;;;;8.02;3.60;;;3.10;18.90;;;;;;5380112;26;20567;-69
2024/04/11 04:33:48;;;;;;;6.22;3.40;;;3.10;18.90;;;;;;5381458;26;20565;-69
2024/04/11 04:36:28;;;;;;;8.95;3.30;;;3.10;18.90;;;;;;5381724;26;20279;-70
2024/04/11 04:38:56;;;;;;;5.38;3.72;;;3.10;18.90;;;;;;5381715;26;20251;-69
2024/04/11 04:41:28;;;;;;;5.32;3.08;;;3.10;18.90;;;;;;5381880;26;20743;-70
2024/04/11 04:43:57;;;;;;;7.05;3.38;;;3.10;18.40;;;;;;5381377;26;20216;-70
2024/04/11 04:46:24;;;;;;;5.10;3.95;;;3.10;18.10;;;;;;5381433;26;20275;-68
2024/04/11 04:48:52;;;;;;;4.78;4.03;;;3.20;18.30;;;;;;5381389;26;20272;-69
2024/04/11 04:51:18;;;;;;;6.03;4.20;;;3.20;18.40;;;;;;5381109;26;20322;-69
2024/04/11 04:53:44;;;;;;;7.93;5.25;;;3.20;18.10;;;;;;5381130;26;20263;-70
2024/04/11 04:56:11;;;;;;;8.80;5.07;;;3.20;17.50;;;;;;5381581;26;20653;-70
2024/04/11 04:58:37;;;;;;;5.18;3.90;;;3.30;18.30;;;;;;5379549;26;20726;-69
2024/04/11 05:01:03;;;;;;;6.30;4.00;;;3.30;18.30;;;;;;5381487;26;20225;-69
2024/04/11 05:03:33;;;;;;;10.45;5.18;;;3.30;17.90;;;;;;5381561;26;20708;-69
2024/04/11 05:06:02;;;;;;;12.27;4.25;;;3.40;17.00;;;;;;5382768;26;20240;-69
2024/04/11 05:08:33;;;;;;;11.13;4.40;;;3.50;16.50;;;;;;5385047;26;20317;-71
2024/04/11 05:10:59;;;;;;;6.45;4.20;;;3.60;15.50;;;;;;5383983;26;20267;-69
2024/04/11 05:13:29;;;;;;;6.85;3.42;;;3.70;15.00;;;;;;5381019;26;20271;-70
2024/04/11 05:16:06;;;;;;;6.07;3.38;;;3.80;14.40;;;;;;5380472;26;20300;-70
2024/04/11 05:18:37;;;;;;;7.03;4.55;;;3.80;14.40;;;;;;5381610;26;20266;-69
2024/04/11 05:21:07;;;;;;;9.02;4.05;;;4.00;15.20;;;;;;5379738;26;20237;-69
2024/04/11 05:23:33;;;;;;;5.60;3.05;;;4.00;15.20;;;;;;5380931;26;20225;-69
2024/04/11 05:26:07;;;;;;;8.38;5.15;;;4.20;13.60;;;;;;5380950;26;20300;-68
2024/04/11 05:28:35;;;;;;;8.43;3.95;;;4.30;12.30;;;;;;5381045;26;20237;-69
2024/04/11 05:31:04;;;;;;;7.05;3.42;;;4.50;12.20;;;;;;5379265;26;20696;-69
2024/04/11 05:33:35;;;;;;;10.75;4.38;;;5.00;13.10;;;;;;5378843;26;20225;-69
2024/04/11 05:36:02;;;;;;;4.78;3.30;;;6.00;7.90;;;;;;5380734;26;20260;-69
2024/04/11 05:38:28;;;;;;;10.95;2.75;;;7.20;1.00;;;;;;5378993;26;20254;-70
2024/04/11 05:40:53;;;;;;;4.77;2.40;;;8.40;1.00;;;;;;5380885;26;20704;-69
2024/04/11 05:43:21;;;;;;;7.60;2.97;;;9.30;1.00;;;;;;5380482;26;20558;-69
2024/04/11 05:45:47;;;;;;;5.63;3.37;;;10.00;1.00;;;;;;5380859;26;20346;-69
2024/04/11 05:48:13;;;;;;;5.77;3.20;;;10.70;1.00;;;;;;5379506;26;20480;-69
2024/04/11 05:50:39;;;;;;;4.77;3.20;;;11.20;1.00;;;;;;5381042;26;20934;-70
2024/04/11 05:53:06;;;;;;;8.73;4.30;;;11.40;1.00;;;;;;5380104;26;20564;-71
2024/04/11 05:55:32;;;;;;;5.60;3.80;;;12.20;1.00;;;;;;5381077;26;20675;-70
2024/04/11 05:57:58;;;;;;;4.73;3.20;;;12.80;1.00;;;;;;5380674;26;20505;-69
2024/04/11 06:00:29;;;;;;;6.03;4.10;;;13.50;1.00;;;;;;5380396;26;20950;-69
2024/04/11 06:02:55;;;;;;;6.53;3.13;;;14.10;1.00;;;;;;5378239;26;20236;-71
2024/04/11 06:05:22;;;;;;;7.07;3.73;;;14.90;1.00;;;;;;5380249;26;20569;-69
2024/04/11 06:07:49;;;;;;;3.40;3.10;;;15.30;1.00;;;;;;5380356;26;21086;-69
2024/04/11 06:10:20;;;;;;;6.50;3.73;;;15.60;1.00;;;;;;5380426;26;20446;-69
2024/04/11 06:12:46;;;;;;;6.57;3.57;;;15.00;1.00;;;;;;5377945;26;20458;-70
2024/04/11 06:15:13;;;;;;;6.30;3.97;;;;;;;;;;5378282;26;20511;-69
2024/04/11 06:17:41;;;;;;;13.27;4.30;;;16.00;1.00;;;;;;5378378;26;20571;-69
2024/04/11 06:20:15;;;;;;;9.23;4.73;;;16.70;1.00;;;;;;5380081;26;20563;-69
2024/04/11 06:22:51;;;;;;;6.70;3.70;;;17.20;1.00;;;;;;5380745;26;20459;-69
2024/04/11 06:25:18;;;;;;;10.93;4.53;;;17.60;1.00;;;;;;5380237;26;20830;-70
2024/04/11 06:27:43;;;;;;;7.80;3.50;;;17.80;1.00;;;;;;5380190;26;20946;-69
2024/04/11 06:30:14;;;;;;;7.30;3.70;;;18.20;1.00;;;;;;5380131;26;20502;-69
2024/04/11 06:32:41;;;;;;;9.37;3.87;;;18.40;1.00;;;;;;5379863;26;20224;-70
2024/04/11 06:35:08;;;;;;;5.60;4.07;;;18.80;1.00;;;;;;5383829;26;20446;-69
2024/04/11 06:37:34;;;;;;;3.20;2.90;;;19.10;1.00;;;;;;5380794;26;20443;-70
2024/04/11 06:40:11;;;;;;;5.80;4.80;;;19.00;1.00;;;;;;5379955;26;20505;-70
2024/04/11 06:42:46;;;;;;;6.17;3.63;;;19.80;1.00;;;;;;5382796;26;20533;-70
2024/04/11 06:45:16;;;;;;;5.13;4.43;;;19.80;1.00;;;;;;5380427;26;20500;-70
2024/04/11 06:47:42;;;;;;;4.73;4.33;;;20.50;1.00;;;;;;5380523;26;20499;-70
2024/04/11 06:50:08;;;;;;;4.90;3.57;;;21.30;1.00;;;;;;5380954;26;20523;-70
2024/04/11 06:52:34;;;;;;;5.57;4.27;;;21.60;1.00;;;;;;5380456;26;20454;-70
2024/04/11 06:54:59;;;;;;;10.17;6.97;;;21.50;1.00;;;;;;5379079;26;20527;-71
2024/04/11 06:57:26;;;;;;;8.33;4.87;;;22.00;1.00;;;;;;5379531;26;20244;-69
2024/04/11 06:59:52;;;;;;;9.10;4.83;;;22.30;1.00;;;;;;5379822;26;20224;-69
2024/04/11 07:02:18;;;;;;;6.60;5.07;;;22.60;1.00;;;;;;5379516;26;20492;-69
2024/04/11 07:04:44;;;;;;;5.60;4.93;;;22.60;1.00;;;;;;5379043;26;20443;-69
2024/04/11 07:07:10;;;;;;;8.27;5.27;;;23.20;1.00;;;;;;5379577;26;20856;-69
2024/04/11 07:09:38;;;;;;;11.13;5.27;;;23.50;1.00;;;;;;5379696;26;20513;-69
2024/04/11 07:12:10;;;;;;;4.80;4.40;;;24.10;1.00;;;;;;5379400;26;20485;-71
2024/04/11 07:14:38;;;;;;;5.30;4.80;;;24.30;1.00;;;;;;5376370;26;20466;-69
2024/04/11 07:17:11;;;;;;;4.57;4.13;;;24.80;1.00;;;;;;5379525;26;20929;-70
2024/04/11 07:19:42;;;;;;;5.87;4.97;;;24.40;1.00;;;;;;5379705;26;20450;-69
2024/04/11 07:22:09;;;;;;;7.10;5.07;;;;;;;;;;5379279;26;20855;-70
2024/04/11 07:24:36;;;;;;;4.57;4.10;;;25.40;1.00;;;;;;5378931;26;20907;-70
2024/04/11 07:27:04;;;;;;;5.70;5.20;;;25.40;1.00;;;;;;5379381;26;20550;-70
2024/04/11 07:29:30;;;;;;;5.70;5.20;;;25.20;1.00;;;;;;5379410;26;20563;-69
2024/04/11 07:31:55;;;;;;;6.73;4.60;;;25.80;1.00;;;;;;5379293;26;20455;-70
2024/04/11 07:34:23;;;;;;;9.40;4.97;;;25.00;1.00;;;;;;5377074;26;20244;-69
2024/04/11 07:36:51;;;;;;;6.37;5.00;;;22.90;1.00;;;;;;5404293;21;20510;-72
2024/04/11 07:39:17;;;;;;;5.10;4.07;;;21.00;1.00;;;;;;5380416;26;20529;-70
2024/04/11 07:41:45;;;;;;;6.67;4.70;;;19.30;1.00;;;;;;5380012;26;20455;-70
2024/04/11 07:44:17;;;;;;;4.80;4.30;;;18.60;1.00;;;;;;5348240;26;20458;-72
2024/04/11 07:46:43;;;;;;;5.23;4.30;;;18.10;1.00;;;;;;5379895;26;20471;-71
2024/04/11 07:49:09;;;;;;;4.70;4.30;;;17.60;1.00;;;;;;5379590;26;20503;-71
2024/04/11 07:51:36;;;;;;;6.13;5.00;;;17.50;1.00;;;;;;5379632;26;20470;-71
2024/04/11 07:54:12;;;;;;;10.63;4.30;;;18.70;1.00;;;;;;5378888;26;20454;-71
2024/04/11 07:56:39;;;;;;;7.20;4.73;;;17.70;1.00;;;;;;5379599;26;20502;-71
2024/04/11 07:59:06;;;;;;;11.63;4.83;;;17.50;1.00;;;;;;5348368;26;20509;-70
2024/04/11 08:01:34;;;;;;;5.07;4.60;;;17.20;1.00;;;;;;5379546;26;20539;-71
2024/04/11 08:04:06;;;;;;;8.90;4.87;;;16.80;1.00;;;;;;5348143;26;20920;-71
2024/04/11 08:06:34;;;;;;;5.50;4.23;;;17.60;1.00;;;;;;5379061;26;20459;-71
2024/04/11 08:09:00;;;;;;;5.23;4.00;;;19.40;1.00;;;;;;5348347;26;20467;-71
2024/04/11 08:11:30;;;;;;;4.77;4.37;;;20.00;1.00;;;;;;5379578;26;20506;-71
2024/04/11 08:13:57;;;;;;;6.43;5.53;;;21.40;1.00;;;;;;5348187;26;20466;-71
2024/04/11 08:16:23;;;;;;;5.87;4.53;;;21.70;1.00;;;;;;5348666;26;20850;-71
2024/04/11 08:18:49;;;;;;;8.30;5.63;;;23.10;1.00;;;;;;5348561;26;20514;-72
2024/04/11 08:21:16;;;;;;;5.90;5.40;;;23.20;1.00;;;;;;5379136;26;20503;-71
2024/04/11 08:23:45;;;;;;;5.67;4.73;;;23.40;1.00;;;;;;5378289;26;20225;-71
2024/04/11 08:26:15;;;;;;;6.57;5.27;;;23.50;1.00;;;;;;5378937;26;20734;-71
2024/04/11 08:28:41;;;;;;;5.70;5.20;;;23.80;1.00;;;;;;5382478;26;20458;-71
2024/04/11 08:31:08;;;;;;;5.83;5.33;;;24.00;1.00;;;;;;5351673;26;20513;-71
2024/04/11 08:33:34;;;;;;;6.00;5.40;;;23.70;1.00;;;;;;5382463;26;20723;-71
2024/04/11 08:36:04;;;;;;;10.00;4.50;;;25.30;1.00;;;;;;5382674;26;20467;-72
2024/04/11 08:38:40;;;;;;;7.73;5.07;;;24.30;1.00;;;;;;5382608;26;20450;-71
2024/04/11 08:41:11;;;;;;;7.97;4.97;;;26.10;1.00;;;;;;5382548;26;20462;-71
2024/04/11 08:43:38;;;;;;;6.20;5.60;;;25.80;1.00;;;;;;5381553;26;20451;-72
2024/04/11 08:46:09;;;;;;;5.30;4.83;;;26.70;1.00;;;;;;5382154;26;20467;-70
2024/04/11 08:48:37;;;;;;;8.80;5.33;;;28.00;1.00;;;;;;5383033;26;20446;-71
2024/04/11 08:51:09;;;;;;;7.77;5.43;;;26.80;1.00;;;;;;5382656;26;20502;-71
2024/04/11 08:53:36;;;;;;;4.20;3.80;;;23.90;1.00;;;;;;5382526;26;20577;-71
2024/04/11 08:56:03;;;;;;;8.80;3.97;;;21.90;1.00;;;;;;5382084;26;20852;-71
2024/04/11 08:58:29;;;;;;;4.20;3.80;;;19.90;1.00;;;;;;5381795;26;20455;-71
2024/04/11 09:00:59;;;;;;;4.87;4.47;;;18.40;1.00;;;;;;5382155;26;20507;-71
2024/04/11 09:03:26;;;;;;;5.33;3.90;;;17.30;1.00;;;;;;5381373;26;20224;-70
2024/04/11 09:05:52;;;;;;;4.17;3.63;;;16.70;1.00;;;;;;5350757;26;20486;-71
2024/04/11 09:08:19;;;;;;;4.63;4.23;;;16.00;1.00;;;;;;5381716;26;20557;-71
2024/04/11 09:10:45;;;;;;;5.40;4.50;;;15.80;1.00;;;;;;5382582;26;20561;-71
2024/04/11 09:13:15;;;;;;;5.57;3.30;;;15.70;1.00;;;;;;5381590;26;20455;-71
2024/04/11 09:15:41;;;;;;;6.57;4.03;;;15.40;1.00;;;;;;5387726;26;20786;-71
2024/04/11 09:18:06;;;;;;;5.20;4.07;;;15.10;1.00;;;;;;5389222;26;20507;-71
2024/04/11 09:20:34;;;;;;;6.30;4.07;;;15.00;1.00;;;;;;5387467;26;20224;-70
2024/04/11 09:23:00;;;;;;;4.87;3.27;;;15.00;1.00;;;;;;5382017;26;20736;-70
2024/04/11 09:25:26;;;;;;;5.30;4.53;;;14.90;1.00;;;;;;5351509;26;20463;-70
2024/04/11 09:27:58;;;;;;;3.57;3.27;;;14.80;1.00;;;;;;5382397;26;20462;-69
2024/04/11 09:30:29;;;;;;;12.30;4.57;;;14.80;1.00;;;;;;5351187;26;20462;-69
2024/04/11 09:33:04;;;;;;;3.67;3.37;;;14.70;1.00;;;;;;5382210;26;20435;-71
2024/04/11 09:35:40;;;;;;;4.23;3.60;;;14.80;1.00;;;;;;5381578;26;20458;-71
2024/04/11 09:38:12;;;;;;;3.53;2.73;;;15.00;1.00;;;;;;5380999;26;20980;-71
2024/04/11 09:40:50;;;;;;;5.50;3.47;;;14.90;1.00;;;;;;5381300;26;20523;-71
2024/04/11 09:43:17;;;;;;;5.07;3.27;;;15.00;1.00;;;;;;5349967;26;20516;-71
2024/04/11 09:45:50;;;;;;;4.30;3.73;;;15.20;1.00;;;;;;5381033;26;20840;-71
2024/04/11 09:48:21;;;;;;;4.00;3.60;;;15.20;1.00;;;;;;5381433;26;20518;-71
2024/04/11 09:50:48;;;;;;;3.17;2.80;;;15.10;1.00;;;;;;5381705;26;21032;-71
2024/04/11 09:53:26;;;;;;;2.87;2.67;;;15.10;1.00;;;;;;5380976;26;20443;-71
2024/04/11 09:56:05;;;;;;;7.97;4.17;;;15.20;1.00;;;;;;5381258;26;20551;-71
2024/04/11 09:58:38;;;;;;;11.93;4.00;;;15.40;1.00;;;;;;5350585;26;20526;-70
2024/04/11 10:01:14;;;;;;;5.53;3.43;;;15.50;1.00;;;;;;5381099;26;20989;-71
2024/04/11 10:03:40;;;;;;;5.20;3.80;;;15.40;1.00;;;;;;5380697;26;20882;-70
2024/04/11 10:06:20;;;;;;;7.50;3.10;;;15.40;1.00;;;;;;5349994;26;20470;-72
2024/04/11 10:08:48;;;;;;;4.60;3.50;;;15.50;1.00;;;;;;5381931;26;20703;-71
2024/04/11 10:11:17;;;;;;;6.23;3.90;;;15.70;1.00;;;;;;5381809;26;20881;-70
2024/04/11 10:13:44;;;;;;;4.90;3.80;;;15.70;1.00;;;;;;5381604;26;20506;-70
2024/04/11 10:16:22;;;;;;;6.50;4.10;;;15.70;1.00;;;;;;5381677;26;20513;-71
2024/04/11 10:19:12;;;;;;;6.10;3.67;;;15.50;1.00;;;;;;5350133;26;20619;-71
2024/04/11 10:21:39;;;;;;;4.10;3.20;;;15.60;1.00;;;;;;5381702;26;20515;-71
2024/04/11 10:24:14;;;;;;;4.23;3.50;;;15.70;1.00;;;;;;5381048;26;20451;-71
2024/04/11 10:26:43;;;;;;;3.53;3.23;;;15.70;1.00;;;;;;5382429;26;20523;-71
2024/04/11 10:29:18;;;;;;;6.10;3.40;;;15.60;1.00;;;;;;5381682;26;20965;-71
2024/04/11 10:31:44;;;;;;;6.10;3.50;;;15.70;1.00;;;;;;5350676;26;20538;-70
2024/04/11 10:34:12;;;;;;;3.90;3.20;;;15.90;1.00;;;;;;5349710;26;20513;-70
2024/04/11 10:36:42;;;;;;;5.20;3.30;;;15.80;1.00;;;;;;5380502;26;20526;-70
2024/04/11 10:39:08;;;;;;;5.20;3.90;;;15.90;1.00;;;;;;5350112;26;20584;-70
2024/04/11 10:41:35;;;;;;;6.97;3.40;;;15.90;1.00;;;;;;5350479;26;20459;-71
2024/04/11 10:44:05;;;;;;;5.97;3.10;;;16.00;1.00;;;;;;5380354;26;20504;-71
2024/04/11 10:46:32;;;;;;;5.20;3.40;;;16.20;1.00;;;;;;5381886;26;20527;-71
2024/04/11 10:49:12;;;;;;;6.23;4.20;;;16.30;1.00;;;;;;5381287;26;20450;-71
2024/04/11 10:51:47;;;;;;;3.57;3.27;;;16.30;1.00;;;;;;5349413;26;20521;-71
2024/04/11 10:54:13;;;;;;;4.10;3.70;;;16.30;1.00;;;;;;5380166;26;20843;-71
2024/04/11 10:56:46;;;;;;;8.27;3.63;;;16.20;1.00;;;;;;5380569;26;20527;-71
2024/04/11 10:59:17;;;;;;;3.97;3.57;;;16.10;1.00;;;;;;5380617;26;21092;-71
2024/04/11 11:01:50;;;;;;;4.33;3.73;;;16.30;1.00;;;;;;5380851;26;20442;-71
2024/04/11 11:04:20;;;;;;;5.57;3.80;;;16.60;1.00;;;;;;5380163;26;20451;-70
2024/04/11 11:06:51;;;;;;;3.90;2.70;;;16.50;1.00;;;;;;5349632;26;20470;-71
2024/04/11 11:09:18;;;;;;;4.93;3.30;;;16.60;1.00;;;;;;5349706;26;20506;-71
2024/04/11 11:11:44;;;;;;;3.73;3.30;;;16.60;1.00;;;;;;5382114;26;20511;-70
2024/04/11 11:14:18;;;;;;;4.80;3.73;;;16.50;1.00;;;;;;5350118;26;20524;-70
2024/04/11 11:16:44;;;;;;;6.13;3.30;;;16.70;1.00;;;;;;5380013;26;20829;-71
2024/04/11 11:19:14;;;;;;;3.63;3.33;;;16.90;1.00;;;;;;5380307;26;20438;-71
2024/04/11 11:21:42;;;;;;;4.60;3.07;;;17.10;1.00;;;;;;5380753;26;20527;-71
2024/04/11 11:24:13;;;;;;;5.60;4.17;;;17.20;1.00;;;;;;5348423;26;20462;-70
2024/04/11 11:26:46;;;;;;;7.73;3.20;;;17.20;1.00;;;;;;5380508;26;20458;-71
2024/04/11 11:29:20;;;;;;;4.20;3.50;;;17.30;1.00;;;;;;5350384;26;20503;-72
2024/04/11 11:31:50;;;;;;;8.30;3.57;;;17.20;1.00;;;;;;5389379;26;20454;-70
2024/04/11 11:34:16;;;;;;;7.73;3.43;;;17.10;1.00;;;;;;5349138;26;20462;-72
2024/04/11 11:36:47;;;;;;;3.30;2.93;;;17.20;1.00;;;;;;5379924;26;20482;-70
2024/04/11 11:39:19;;;;;;;4.03;3.50;;;17.00;1.00;;;;;;5379997;26;20506;-70
2024/04/11 11:41:48;;;;;;;5.90;3.07;;;17.10;1.00;;;;;;5379716;26;20506;-70
2024/04/11 11:44:18;;;;;;;3.50;3.20;;;17.20;1.00;;;;;;5348477;26;20510;-71
2024/04/11 11:46:49;;;;;;;5.90;3.40;;;17.50;1.00;;;;;;5379458;26;20470;-71
2024/04/11 11:49:17;;;;;;;4.57;3.90;;;17.50;1.00;;;;;;5348720;26;20459;-71
2024/04/11 11:51:45;;;;;;;4.07;3.40;;;17.50;1.00;;;;;;5379397;26;20847;-71
2024/04/11 11:54:13;;;;;;;4.93;3.60;;;17.50;1.00;;;;;;5378839;26;20555;-70
2024/04/11 11:56:40;;;;;;;10.53;3.60;;;17.60;1.00;;;;;;5379290;26;20550;-71
2024/04/11 11:59:05;;;;;;;5.07;2.80;;;17.70;1.00;;;;;;5379277;26;20587;-71
2024/04/11 12:01:41;;;;;;;3.90;3.50;;;17.80;1.00;;;;;;5350273;26;20598;-71
2024/04/11 12:04:12;;;;;;;4.27;3.10;;;17.80;1.00;;;;;;5383102;26;20220;-70
2024/04/11 12:06:38;;;;;;;4.00;3.10;;;18.10;1.00;;;;;;5383088;26;20467;-71
2024/04/11 12:09:11;;;;;;;5.33;3.83;;;18.30;1.00;;;;;;5382788;26;21095;-71
2024/04/11 12:11:53;;;;;;;4.43;2.97;;;18.00;1.00;;;;;;5382881;26;20217;-71
2024/04/11 12:14:34;;;;;;;3.60;3.30;;;18.00;1.00;;;;;;5382576;26;20450;-71
2024/04/11 12:17:05;;;;;;;7.30;3.43;;;17.90;1.00;;;;;;5383305;26;20969;-71
2024/04/11 12:19:31;;;;;;;3.40;3.10;;;17.80;1.00;;;;;;5382760;26;20442;-71
2024/04/11 12:22:15;;;;;;;4.73;3.30;;;17.90;1.00;;;;;;5382887;26;20789;-71
2024/04/11 12:24:42;;;;;;;6.57;3.03;;;17.90;1.00;;;;;;5382285;26;20510;-71
2024/04/11 12:27:10;;;;;;;3.80;3.40;;;18.00;1.00;;;;;;5382641;26;21016;-71
2024/04/11 12:29:40;;;;;;;3.90;3.50;;;18.20;1.00;;;;;;5351104;26;20509;-71
2024/04/11 12:32:07;;;;;;;4.27;3.87;;;18.40;1.00;;;;;;5351186;26;20511;-70
2024/04/11 12:34:33;;;;;;;4.27;3.23;;;18.50;1.00;;;;;;5381663;26;20882;-72
2024/04/11 12:37:10;;;;;;;3.17;2.97;;;18.70;1.00;;;;;;5382110;26;20466;-71
2024/04/11 12:39:41;;;;;;;10.70;3.70;;;18.60;1.00;;;;;;5351680;26;20458;-71
2024/04/11 12:42:07;;;;;;;3.90;3.47;;;18.40;1.00;;;;;;5385938;26;20450;-71
2024/04/11 12:44:36;;;;;;;3.43;3.13;;;18.50;1.00;;;;;;5355031;26;20458;-71
2024/04/11 12:47:13;;;;;;;4.40;3.37;;;18.80;1.00;;;;;;5384985;26;20463;-71
2024/04/11 12:49:47;;;;;;;8.40;3.83;;;18.90;1.00;;;;;;5354050;26;20517;-72
2024/04/11 12:52:14;;;;;;;4.30;3.63;;;18.70;1.00;;;;;;5384402;26;20435;-71
2024/04/11 12:54:40;;;;;;;4.90;3.10;;;18.70;1.00;;;;;;5382561;26;20446;-71
2024/04/11 12:57:06;;;;;;;5.80;4.23;;;18.70;1.00;;;;;;5382834;26;20467;-72
2024/04/11 12:59:32;;;;;;;3.87;3.53;;;18.70;1.00;;;;;;5351623;26;20513;-72
2024/04/11 13:01:59;;;;;;;5.03;4.13;;;18.80;1.00;;;;;;5382126;26;20494;-72
2024/04/11 13:04:32;;;;;;;7.20;3.37;;;18.90;1.00;;;;;;5382301;26;20450;-72